Oak Grove, Oregon
Current Conditions -  °F | °C
As of 7:53 AM on Saturday 20 Dec 2014 (Local Time) from KPDX Reporting Station
Light Rain Light Rain  
Wind Chill:   Ceiling: 2400
Heat Index:   Visibility: 10mi
Dew Point:   Wind: 17mph
Humidity: 97%   Direction: 110°ESE
Pressure: 29.73"   Gusts: NA
Location:  45.42°N, 122.64°W
Report Text: KPDX 201553Z 11015KT 10SM -RA OVC024 07/07 A2973 RMK AO2 SLP067 P0003 T00720067
Loading
Personal Weather Stations






























Interactive Weather Map New forecast layout! Learn more

10-Day Weather Forecast

Advertisements
Track Severe Weather on mobile